sensor_id;sensor_type;location;lat;lon;timestamp;pressure;altitude;pressure_sealevel;temperature;humidity
75036;BME280;64247;51.540;5.854;2022-12-16T00:01:26;100652.91;;;-3.50;93.89
75036;BME280;64247;51.540;5.854;2022-12-16T00:03:27;100656.97;;;-3.42;93.02
75036;BME280;64247;51.540;5.854;2022-12-16T00:05:28;100663.88;;;-3.41;91.91
75036;BME280;64247;51.540;5.854;2022-12-16T00:07:31;100655.50;;;-3.55;92.75
75036;BME280;64247;51.540;5.854;2022-12-16T00:09:31;100654.66;;;-3.60;93.18
75036;BME280;64247;51.540;5.854;2022-12-16T00:11:32;100651.25;;;-3.56;92.91
75036;BME280;64247;51.540;5.854;2022-12-16T00:13:34;100653.66;;;-3.54;92.86
75036;BME280;64247;51.540;5.854;2022-12-16T00:15:36;100662.69;;;-3.55;92.79
75036;BME280;64247;51.540;5.854;2022-12-16T00:17:37;100665.03;;;-3.59;92.77
75036;BME280;64247;51.540;5.854;2022-12-16T00:19:39;100667.38;;;-3.62;93.55
75036;BME280;64247;51.540;5.854;2022-12-16T00:21:40;100669.47;;;-3.64;93.43
75036;BME280;64247;51.540;5.854;2022-12-16T00:23:40;100662.34;;;-3.64;93.34
75036;BME280;64247;51.540;5.854;2022-12-16T00:25:43;100659.72;;;-3.59;94.03
75036;BME280;64247;51.540;5.854;2022-12-16T00:27:45;100656.63;;;-3.51;93.81
75036;BME280;64247;51.540;5.854;2022-12-16T00:29:45;100666.22;;;-3.44;93.52
75036;BME280;64247;51.540;5.854;2022-12-16T00:31:46;100659.13;;;-3.39;93.48
75036;BME280;64247;51.540;5.854;2022-12-16T00:33:47;100658.84;;;-3.37;93.04
75036;BME280;64247;51.540;5.854;2022-12-16T00:35:48;100659.16;;;-3.34;93.02
75036;BME280;64247;51.540;5.854;2022-12-16T00:37:49;100659.19;;;-3.28;92.82
75036;BME280;64247;51.540;5.854;2022-12-16T00:39:50;100658.44;;;-3.24;92.70
75036;BME280;64247;51.540;5.854;2022-12-16T00:41:51;100655.56;;;-3.22;92.36
75036;BME280;64247;51.540;5.854;2022-12-16T00:43:52;100646.50;;;-3.21;92.42
75036;BME280;64247;51.540;5.854;2022-12-16T00:45:53;100654.75;;;-3.18;92.70
75036;BME280;64247;51.540;5.854;2022-12-16T00:47:54;100657.47;;;-3.12;92.43
75036;BME280;64247;51.540;5.854;2022-12-16T00:49:54;100658.38;;;-3.02;91.53
75036;BME280;64247;51.540;5.854;2022-12-16T00:51:55;100668.53;;;-2.93;91.28
75036;BME280;64247;51.540;5.854;2022-12-16T00:53:56;100663.22;;;-2.88;90.95
75036;BME280;64247;51.540;5.854;2022-12-16T00:56:15;100657.91;;;-2.88;91.42
75036;BME280;64247;51.540;5.854;2022-12-16T00:58:19;100652.06;;;-2.90;90.71
75036;BME280;64247;51.540;5.854;2022-12-16T01:00:20;100654.47;;;-2.89;90.99
75036;BME280;64247;51.540;5.854;2022-12-16T01:02:21;100659.03;;;-2.84;90.82
75036;BME280;64247;51.540;5.854;2022-12-16T01:04:22;100664.63;;;-2.80;90.63
75036;BME280;64247;51.540;5.854;2022-12-16T01:06:26;100665.97;;;-2.78;90.89
75036;BME280;64247;51.540;5.854;2022-12-16T01:08:27;100659.06;;;-2.79;90.35
75036;BME280;64247;51.540;5.854;2022-12-16T01:10:27;100661.44;;;-2.77;90.53
75036;BME280;64247;51.540;5.854;2022-12-16T01:12:28;100659.06;;;-2.79;91.26
75036;BME280;64247;51.540;5.854;2022-12-16T01:14:29;100665.44;;;-2.75;91.39
75036;BME280;64247;51.540;5.854;2022-12-16T01:16:30;100673.41;;;-2.75;91.37
75036;BME280;64247;51.540;5.854;2022-12-16T01:18:31;100677.19;;;-2.71;91.48
75036;BME280;64247;51.540;5.854;2022-12-16T01:20:32;100676.41;;;-2.66;91.34
75036;BME280;64247;51.540;5.854;2022-12-16T01:22:34;100680.41;;;-2.63;90.83
75036;BME280;64247;51.540;5.854;2022-12-16T01:24:35;100682.81;;;-2.62;90.74
75036;BME280;64247;51.540;5.854;2022-12-16T01:26:36;100681.25;;;-2.58;90.95
75036;BME280;64247;51.540;5.854;2022-12-16T01:28:38;100681.53;;;-2.54;91.00
75036;BME280;64247;51.540;5.854;2022-12-16T01:30:39;100688.16;;;-2.57;90.77
75036;BME280;64247;51.540;5.854;2022-12-16T01:32:40;100690.81;;;-2.57;90.90
75036;BME280;64247;51.540;5.854;2022-12-16T01:34:41;100686.31;;;-2.56;91.20
75036;BME280;64247;51.540;5.854;2022-12-16T01:36:43;100691.63;;;-2.56;91.55
75036;BME280;64247;51.540;5.854;2022-12-16T01:38:44;100688.16;;;-2.57;91.51
75036;BME280;64247;51.540;5.854;2022-12-16T01:40:45;100687.09;;;-2.56;91.40
75036;BME280;64247;51.540;5.854;2022-12-16T01:42:46;100686.31;;;-2.56;91.52
75036;BME280;64247;51.540;5.854;2022-12-16T01:44:49;100694.28;;;-2.56;91.33
75036;BME280;64247;51.540;5.854;2022-12-16T01:47:02;100702.25;;;-2.56;91.54
75036;BME280;64247;51.540;5.854;2022-12-16T01:49:11;100700.66;;;-2.57;91.15
75036;BME280;64247;51.540;5.854;2022-12-16T01:51:29;100714.72;;;-2.57;91.36
75036;BME280;64247;51.540;5.854;2022-12-16T01:53:37;100711.06;;;-2.50;91.51
75036;BME280;64247;51.540;5.854;2022-12-16T01:55:45;100710.50;;;-2.52;91.21
75036;BME280;64247;51.540;5.854;2022-12-16T01:57:54;100706.25;;;-2.53;91.47
75036;BME280;64247;51.540;5.854;2022-12-16T02:00:00;100712.13;;;-2.51;91.70
75036;BME280;64247;51.540;5.854;2022-12-16T02:02:23;100715.09;;;-2.43;91.97
75036;BME280;64247;51.540;5.854;2022-12-16T02:04:24;100714.31;;;-2.38;91.61
75036;BME280;64247;51.540;5.854;2022-12-16T02:06:25;100714.31;;;-2.38;91.70
75036;BME280;64247;51.540;5.854;2022-12-16T02:08:27;100722.31;;;-2.33;91.16
75036;BME280;64247;51.540;5.854;2022-12-16T02:10:50;100731.38;;;-2.34;91.06
75036;BME280;64247;51.540;5.854;2022-12-16T02:16:10;100724.94;;;-2.38;91.22
75036;BME280;64247;51.540;5.854;2022-12-16T02:40:00;100738.34;;;-2.17;93.76
75036;BME280;64247;51.540;5.854;2022-12-16T02:42:12;100725.09;;;-2.12;93.22
75036;BME280;64247;51.540;5.854;2022-12-16T02:45:11;100737.59;;;-2.13;93.40
75036;BME280;64247;51.540;5.854;2022-12-16T02:47:02;100731.19;;;-2.17;93.71
75036;BME280;64247;51.540;5.854;2022-12-16T02:49:34;100733.84;;;-2.17;94.04
75036;BME280;64247;51.540;5.854;2022-12-16T02:51:46;100731.97;;;-2.16;94.36
75036;BME280;64247;51.540;5.854;2022-12-16T02:53:49;100745.06;;;-2.10;94.13
75036;BME280;64247;51.540;5.854;2022-12-16T02:56:27;100739.19;;;-2.12;94.50
75036;BME280;64247;51.540;5.854;2022-12-16T02:59:10;100734.91;;;-2.18;94.85
75036;BME280;64247;51.540;5.854;2022-12-16T03:02:09;100740.78;;;-2.16;94.93
75036;BME280;64247;51.540;5.854;2022-12-16T03:04:56;100733.88;;;-2.12;95.31
75036;BME280;64247;51.540;5.854;2022-12-16T03:07:09;100740.03;;;-2.01;95.04
75036;BME280;64247;51.540;5.854;2022-12-16T03:09:18;100738.47;;;-1.97;94.54
75036;BME280;64247;51.540;5.854;2022-12-16T03:11:26;100739.00;;;-2.00;94.64
75036;BME280;64247;51.540;5.854;2022-12-16T03:13:33;100743.75;;;-2.02;94.64
75036;BME280;64247;51.540;5.854;2022-12-16T03:15:39;100744.56;;;-2.01;94.72
75036;BME280;64247;51.540;5.854;2022-12-16T03:17:43;100750.69;;;-2.01;94.75
75036;BME280;64247;51.540;5.854;2022-12-16T03:20:02;100757.63;;;-2.00;94.68
75036;BME280;64247;51.540;5.854;2022-12-16T03:22:19;100763.75;;;-1.99;95.10
75036;BME280;64247;51.540;5.854;2022-12-16T03:24:23;100756.28;;;-1.97;94.94
75036;BME280;64247;51.540;5.854;2022-12-16T03:26:28;100754.47;;;-1.92;95.06
75036;BME280;64247;51.540;5.854;2022-12-16T03:28:54;100761.66;;;-1.87;95.29
75036;BME280;64247;51.540;5.854;2022-12-16T03:31:25;100761.66;;;-1.87;94.76
75036;BME280;64247;51.540;5.854;2022-12-16T03:33:41;100758.19;;;-1.87;94.79
75036;BME280;64247;51.540;5.854;2022-12-16T03:36:06;100754.25;;;-1.85;94.75
75036;BME280;64247;51.540;5.854;2022-12-16T03:38:22;100760.06;;;-1.88;94.36
75036;BME280;64247;51.540;5.854;2022-12-16T03:40:27;100756.84;;;-1.95;94.35
75036;BME280;64247;51.540;5.854;2022-12-16T03:42:28;100756.28;;;-2.02;94.28
75036;BME280;64247;51.540;5.854;2022-12-16T03:44:30;100764.22;;;-2.08;94.37
75036;BME280;64247;51.540;5.854;2022-12-16T03:46:32;100768.72;;;-2.13;94.44
75036;BME280;64247;51.540;5.854;2022-12-16T03:48:34;100764.44;;;-2.19;94.04
75036;BME280;64247;51.540;5.854;2022-12-16T03:50:36;100766.50;;;-2.27;94.24
75036;BME280;64247;51.540;5.854;2022-12-16T03:52:37;100762.47;;;-2.34;94.76
75036;BME280;64247;51.540;5.854;2022-12-16T03:54:38;100768.81;;;-2.41;94.68
75036;BME280;64247;51.540;5.854;2022-12-16T03:56:39;100770.34;;;-2.45;95.14
75036;BME280;64247;51.540;5.854;2022-12-16T03:58:40;100767.66;;;-2.50;94.79
75036;BME280;64247;51.540;5.854;2022-12-16T04:00:41;100766.03;;;-2.56;95.21
75036;BME280;64247;51.540;5.854;2022-12-16T04:02:42;100763.59;;;-2.63;95.59
75036;BME280;64247;51.540;5.854;2022-12-16T04:04:43;100775.22;;;-2.69;95.31
75036;BME280;64247;51.540;5.854;2022-12-16T04:06:43;100771.72;;;-2.75;95.72
75036;BME280;64247;51.540;5.854;2022-12-16T04:08:45;100782.31;;;-2.80;96.06
75036;BME280;64247;51.540;5.854;2022-12-16T04:10:50;100779.91;;;-2.81;95.89
75036;BME280;64247;51.540;5.854;2022-12-16T04:13:10;100788.94;;;-2.82;96.13
75036;BME280;64247;51.540;5.854;2022-12-16T04:15:30;100786.28;;;-2.82;96.35
75036;BME280;64247;51.540;5.854;2022-12-16T04:17:49;100793.19;;;-2.81;96.55
75036;BME280;64247;51.540;5.854;2022-12-16T04:20:14;100784.72;;;-2.78;96.09
75036;BME280;64247;51.540;5.854;2022-12-16T04:22:37;100792.44;;;-2.77;95.95
75036;BME280;64247;51.540;5.854;2022-12-16T04:25:04;100798.28;;;-2.75;96.32
75036;BME280;64247;51.540;5.854;2022-12-16T04:27:09;100802.56;;;-2.74;96.16
75036;BME280;64247;51.540;5.854;2022-12-16T04:29:28;100796.19;;;-2.73;95.81
75036;BME280;64247;51.540;5.854;2022-12-16T04:31:29;100800.66;;;-2.78;96.66
75036;BME280;64247;51.540;5.854;2022-12-16T04:33:30;100801.41;;;-2.83;96.15
75036;BME280;64247;51.540;5.854;2022-12-16T04:36:00;100803.00;;;-2.82;96.55
75036;BME280;64247;51.540;5.854;2022-12-16T04:38:20;100808.09;;;-2.80;96.42
75036;BME280;64247;51.540;5.854;2022-12-16T04:40:39;100811.81;;;-2.81;96.65
75036;BME280;64247;51.540;5.854;2022-12-16T04:42:58;100821.13;;;-2.79;96.52
75036;BME280;64247;51.540;5.854;2022-12-16T04:45:18;100816.09;;;-2.75;96.87
75036;BME280;64247;51.540;5.854;2022-12-16T04:47:37;100835.50;;;-2.75;96.79
75036;BME280;64247;51.540;5.854;2022-12-16T04:49:57;100829.09;;;-2.79;96.75
75036;BME280;64247;51.540;5.854;2022-12-16T04:52:16;100837.91;;;-2.73;96.28
75036;BME280;64247;51.540;5.854;2022-12-16T04:54:36;100835.00;;;-2.72;96.23
75036;BME280;64247;51.540;5.854;2022-12-16T04:56:55;100835.56;;;-2.69;96.22
75036;BME280;64247;51.540;5.854;2022-12-16T04:59:15;100839.00;;;-2.69;96.37
75036;BME280;64247;51.540;5.854;2022-12-16T05:01:34;100835.50;;;-2.75;96.49
75036;BME280;64247;51.540;5.854;2022-12-16T05:03:53;100843.72;;;-2.76;96.94
75036;BME280;64247;51.540;5.854;2022-12-16T05:06:13;100830.44;;;-2.76;97.47
75036;BME280;64247;51.540;5.854;2022-12-16T05:08:32;100844.56;;;-2.71;97.35
75036;BME280;64247;51.540;5.854;2022-12-16T05:10:52;100838.72;;;-2.73;97.44
75036;BME280;64247;51.540;5.854;2022-12-16T05:13:11;100847.25;;;-2.71;97.37
75036;BME280;64247;51.540;5.854;2022-12-16T05:15:30;100849.38;;;-2.67;97.38
75036;BME280;64247;51.540;5.854;2022-12-16T05:17:50;100848.41;;;-2.61;97.40
75036;BME280;64247;51.540;5.854;2022-12-16T05:20:09;100846.63;;;-2.50;96.91
75036;BME280;64247;51.540;5.854;2022-12-16T05:22:29;100850.09;;;-2.45;96.59
75036;BME280;64247;51.540;5.854;2022-12-16T05:24:48;100857.28;;;-2.45;96.38
75036;BME280;64247;51.540;5.854;2022-12-16T05:27:07;100856.25;;;-2.44;96.59
75036;BME280;64247;51.540;5.854;2022-12-16T05:29:27;100854.38;;;-2.44;96.76
75036;BME280;64247;51.540;5.854;2022-12-16T05:31:46;100856.78;;;-2.42;96.73
75036;BME280;64247;51.540;5.854;2022-12-16T05:34:07;100867.44;;;-2.42;96.78
75036;BME280;64247;51.540;5.854;2022-12-16T05:36:27;100863.19;;;-2.38;96.90
75036;BME280;64247;51.540;5.854;2022-12-16T05:38:46;100869.56;;;-2.39;96.78
75036;BME280;64247;51.540;5.854;2022-12-16T05:41:05;100871.44;;;-2.40;96.71
75036;BME280;64247;51.540;5.854;2022-12-16T05:43:25;100876.75;;;-2.40;96.95
75036;BME280;64247;51.540;5.854;2022-12-16T05:45:44;100882.88;;;-2.39;96.62
75036;BME280;64247;51.540;5.854;2022-12-16T05:48:03;100891.66;;;-2.39;96.73
75036;BME280;64247;51.540;5.854;2022-12-16T05:50:23;100887.13;;;-2.38;96.96
75036;BME280;64247;51.540;5.854;2022-12-16T05:52:50;100887.69;;;-2.36;96.93
75036;BME280;64247;51.540;5.854;2022-12-16T05:55:10;100903.63;;;-2.36;97.00
75036;BME280;64247;51.540;5.854;2022-12-16T05:57:30;100898.31;;;-2.36;97.02
75036;BME280;64247;51.540;5.854;2022-12-16T05:59:49;100897.00;;;-2.33;96.84
75036;BME280;64247;51.540;5.854;2022-12-16T06:02:14;100895.69;;;-2.31;96.89
75036;BME280;64247;51.540;5.854;2022-12-16T06:04:34;100898.91;;;-2.29;96.90
75036;BME280;64247;51.540;5.854;2022-12-16T06:06:53;100909.28;;;-2.27;96.80
75036;BME280;64247;51.540;5.854;2022-12-16T06:09:12;100899.22;;;-2.25;96.73
75036;BME280;64247;51.540;5.854;2022-12-16T06:11:32;100901.88;;;-2.25;96.78
75036;BME280;64247;51.540;5.854;2022-12-16T06:13:51;100910.63;;;-2.25;97.05
75036;BME280;64247;51.540;5.854;2022-12-16T06:16:11;100909.59;;;-2.24;96.88
75036;BME280;64247;51.540;5.854;2022-12-16T06:18:30;100908.28;;;-2.21;96.87
75036;BME280;64247;51.540;5.854;2022-12-16T06:20:49;100908.03;;;-2.19;96.83
75036;BME280;64247;51.540;5.854;2022-12-16T06:23:09;100905.38;;;-2.19;96.97
75036;BME280;64247;51.540;5.854;2022-12-16T06:25:28;100907.00;;;-2.18;97.07
75036;BME280;64247;51.540;5.854;2022-12-16T06:27:51;100906.72;;;-2.17;96.98
75036;BME280;64247;51.540;5.854;2022-12-16T06:30:11;100910.19;;;-2.16;96.83
75036;BME280;64247;51.540;5.854;2022-12-16T06:32:30;100914.19;;;-2.14;97.00
75036;BME280;64247;51.540;5.854;2022-12-16T06:34:50;100919.50;;;-2.14;97.05
75036;BME280;64247;51.540;5.854;2022-12-16T06:37:09;100929.09;;;-2.13;97.09
75036;BME280;64247;51.540;5.854;2022-12-16T06:39:29;100923.53;;;-2.11;97.06
75036;BME280;64247;51.540;5.854;2022-12-16T06:41:48;100927.28;;;-2.07;97.30
75036;BME280;64247;51.540;5.854;2022-12-16T06:44:07;100934.22;;;-2.06;97.16
75036;BME280;64247;51.540;5.854;2022-12-16T06:46:26;100929.69;;;-2.05;97.02
75036;BME280;64247;51.540;5.854;2022-12-16T06:48:46;100931.56;;;-2.06;96.69
75036;BME280;64247;51.540;5.854;2022-12-16T06:51:05;100933.16;;;-2.05;96.93
75036;BME280;64247;51.540;5.854;2022-12-16T06:53:25;100935.00;;;-2.05;97.20
75036;BME280;64247;51.540;5.854;2022-12-16T06:55:44;100947.22;;;-2.10;96.82
75036;BME280;64247;51.540;5.854;2022-12-16T06:58:03;100945.00;;;-2.18;97.13
75036;BME280;64247;51.540;5.854;2022-12-16T07:00:23;100950.31;;;-2.18;97.47
75036;BME280;64247;51.540;5.854;2022-12-16T07:02:42;100958.06;;;-2.16;97.50
75036;BME280;64247;51.540;5.854;2022-12-16T07:05:02;100962.06;;;-2.14;97.39
75036;BME280;64247;51.540;5.854;2022-12-16T07:07:22;100965.25;;;-2.17;97.32
75036;BME280;64247;51.540;5.854;2022-12-16T07:09:41;100972.91;;;-2.20;97.44
75036;BME280;64247;51.540;5.854;2022-12-16T07:12:00;100975.03;;;-2.23;97.51
75036;BME280;64247;51.540;5.854;2022-12-16T07:14:20;100983.75;;;-2.27;97.60
75036;BME280;64247;51.540;5.854;2022-12-16T07:16:39;100982.88;;;-2.33;98.00
75036;BME280;64247;51.540;5.854;2022-12-16T07:18:58;100982.09;;;-2.33;98.13
75036;BME280;64247;51.540;5.854;2022-12-16T07:21:18;100987.91;;;-2.36;97.88
75036;BME280;64247;51.540;5.854;2022-12-16T07:23:37;100995.34;;;-2.39;98.29
75036;BME280;64247;51.540;5.854;2022-12-16T07:25:56;101001.50;;;-2.33;98.92
75036;BME280;64247;51.540;5.854;2022-12-16T07:28:16;101000.75;;;-2.28;98.59
75036;BME280;64247;51.540;5.854;2022-12-16T07:30:35;101002.63;;;-2.29;98.92
75036;BME280;64247;51.540;5.854;2022-12-16T07:32:55;101006.94;;;-2.23;98.70
75036;BME280;64247;51.540;5.854;2022-12-16T07:35:14;101011.94;;;-2.26;98.91
75036;BME280;64247;51.540;5.854;2022-12-16T07:37:33;101011.94;;;-2.26;99.32
75036;BME280;64247;51.540;5.854;2022-12-16T07:39:55;101010.94;;;-2.20;99.85
75036;BME280;64247;51.540;5.854;2022-12-16T07:42:15;101025.16;;;-2.09;99.37
75036;BME280;64247;51.540;5.854;2022-12-16T07:44:34;101026.19;;;-2.10;99.85
75036;BME280;64247;51.540;5.854;2022-12-16T07:46:53;101032.63;;;-2.06;100.00
75036;BME280;64247;51.540;5.854;2022-12-16T07:49:12;101026.78;;;-2.03;99.93
75036;BME280;64247;51.540;5.854;2022-12-16T07:51:32;101028.69;;;-1.98;100.00
75036;BME280;64247;51.540;5.854;2022-12-16T07:53:51;101029.00;;;-1.95;100.00
75036;BME280;64247;51.540;5.854;2022-12-16T07:56:10;101030.69;;;-1.88;100.00
75036;BME280;64247;51.540;5.854;2022-12-16T07:58:30;101028.63;;;-1.81;100.00
75036;BME280;64247;51.540;5.854;2022-12-16T08:00:50;101032.09;;;-1.76;100.00
75036;BME280;64247;51.540;5.854;2022-12-16T08:03:09;101032.69;;;-1.68;100.00
75036;BME280;64247;51.540;5.854;2022-12-16T08:05:29;101036.50;;;-1.59;100.00
75036;BME280;64247;51.540;5.854;2022-12-16T08:07:48;101043.44;;;-1.58;100.00
75036;BME280;64247;51.540;5.854;2022-12-16T08:10:08;101048.50;;;-1.56;99.72
75036;BME280;64247;51.540;5.854;2022-12-16T08:12:27;101050.88;;;-1.60;99.96
75036;BME280;64247;51.540;5.854;2022-12-16T08:14:47;101061.22;;;-1.64;100.00
75036;BME280;64247;51.540;5.854;2022-12-16T08:17:06;101067.34;;;-1.63;100.00
75036;BME280;64247;51.540;5.854;2022-12-16T08:19:25;101071.16;;;-1.54;100.00
75036;BME280;64247;51.540;5.854;2022-12-16T08:21:45;101069.59;;;-1.50;100.00
75036;BME280;64247;51.540;5.854;2022-12-16T08:24:04;101067.53;;;-1.42;100.00
75036;BME280;64247;51.540;5.854;2022-12-16T08:26:23;101078.25;;;-1.32;100.00
75036;BME280;64247;51.540;5.854;2022-12-16T08:28:43;101084.97;;;-1.24;100.00
75036;BME280;64247;51.540;5.854;2022-12-16T08:31:02;101078.91;;;-1.15;100.00
75036;BME280;64247;51.540;5.854;2022-12-16T08:33:22;101083.75;;;-1.06;100.00
75036;BME280;64247;51.540;5.854;2022-12-16T08:35:41;101094.22;;;-0.94;100.00
75036;BME280;64247;51.540;5.854;2022-12-16T08:38:01;101084.44;;;-0.84;99.52
75036;BME280;64247;51.540;5.854;2022-12-16T08:40:20;101087.38;;;-0.80;99.30
75036;BME280;64247;51.540;5.854;2022-12-16T08:42:40;101091.16;;;-0.76;99.43
75036;BME280;64247;51.540;5.854;2022-12-16T08:44:59;101098.94;;;-0.69;99.52
75036;BME280;64247;51.540;5.854;2022-12-16T08:47:19;101104.53;;;-0.66;99.38
75036;BME280;64247;51.540;5.854;2022-12-16T08:49:38;101099.75;;;-0.64;99.32
75036;BME280;64247;51.540;5.854;2022-12-16T08:51:57;101102.69;;;-0.60;99.04
75036;BME280;64247;51.540;5.854;2022-12-16T08:54:17;101106.47;;;-0.56;99.17
75036;BME280;64247;51.540;5.854;2022-12-16T08:56:36;101121.16;;;-0.48;98.94
75036;BME280;64247;51.540;5.854;2022-12-16T08:58:56;101118.53;;;-0.43;98.59
75036;BME280;64247;51.540;5.854;2022-12-16T09:01:15;101123.59;;;-0.41;98.60
75036;BME280;64247;51.540;5.854;2022-12-16T09:03:35;101122.28;;;-0.39;98.39
75036;BME280;64247;51.540;5.854;2022-12-16T09:05:58;101127.88;;;-0.35;98.70
75036;BME280;64247;51.540;5.854;2022-12-16T09:08:17;101135.91;;;-0.30;98.43
75036;BME280;64247;51.540;5.854;2022-12-16T09:10:37;101141.00;;;-0.23;98.71
75036;BME280;64247;51.540;5.854;2022-12-16T09:13:13;101143.97;;;-0.20;98.52
75036;BME280;64247;51.540;5.854;2022-12-16T09:15:33;101148.53;;;-0.15;97.72
75036;BME280;64247;51.540;5.854;2022-12-16T09:17:54;101146.13;;;-0.17;97.90
75036;BME280;64247;51.540;5.854;2022-12-16T09:20:14;101150.34;;;-0.21;97.86
75036;BME280;64247;51.540;5.854;2022-12-16T09:22:34;101156.78;;;-0.17;98.32
75036;BME280;64247;51.540;5.854;2022-12-16T09:24:53;101156.53;;;-0.15;98.43
75036;BME280;64247;51.540;5.854;2022-12-16T09:27:12;101160.03;;;-0.09;98.13
75036;BME280;64247;51.540;5.854;2022-12-16T09:29:32;101156.84;;;-0.01;98.00
75036;BME280;64247;51.540;5.854;2022-12-16T09:31:51;101168.59;;;0.03;97.64
75036;BME280;64247;51.540;5.854;2022-12-16T09:34:10;101165.41;;;0.06;98.06
75036;BME280;64247;51.540;5.854;2022-12-16T09:36:30;101167.59;;;0.14;98.00
75036;BME280;64247;51.540;5.854;2022-12-16T09:38:49;101168.13;;;0.22;97.52
75036;BME280;64247;51.540;5.854;2022-12-16T09:45:31;101181.22;;;0.28;97.37
75036;BME280;64247;51.540;5.854;2022-12-16T09:48:19;101177.50;;;0.29;97.65
75036;BME280;64247;51.540;5.854;2022-12-16T09:51:11;101179.63;;;0.27;97.33
75036;BME280;64247;51.540;5.854;2022-12-16T09:53:34;101187.66;;;0.33;97.46
75036;BME280;64247;51.540;5.854;2022-12-16T09:55:55;101194.34;;;0.35;96.80
75036;BME280;64247;51.540;5.854;2022-12-16T09:58:17;101208.75;;;0.39;95.51
75036;BME280;64247;51.540;5.854;2022-12-16T10:00:41;101207.69;;;0.30;96.30
75036;BME280;64247;51.540;5.854;2022-12-16T10:03:11;101206.84;;;0.24;96.28
75036;BME280;64247;51.540;5.854;2022-12-16T10:09:56;101222.03;;;0.13;96.09
75036;BME280;64247;51.540;5.854;2022-12-16T10:12:51;101210.25;;;0.04;96.28
75036;BME280;64247;51.540;5.854;2022-12-16T10:26:18;101219.25;;;-0.07;96.46
75036;BME280;64247;51.540;5.854;2022-12-16T10:28:48;101215.00;;;-0.08;97.06
75036;BME280;64247;51.540;5.854;2022-12-16T10:31:15;101223.25;;;-0.10;96.68
75036;BME280;64247;51.540;5.854;2022-12-16T10:33:35;101227.25;;;-0.07;96.89
75036;BME280;64247;51.540;5.854;2022-12-16T10:35:55;101231.25;;;-0.10;97.44
75036;BME280;64247;51.540;5.854;2022-12-16T10:38:19;101231.81;;;-0.03;97.30
75036;BME280;64247;51.540;5.854;2022-12-16T10:40:54;101234.75;;;-0.04;97.50
75036;BME280;64247;51.540;5.854;2022-12-16T10:43:42;101240.59;;;-0.07;97.74
75036;BME280;64247;51.540;5.854;2022-12-16T10:46:15;101242.19;;;-0.11;97.88
75036;BME280;64247;51.540;5.854;2022-12-16T10:48:38;101239.03;;;-0.08;98.31
75036;BME280;64247;51.540;5.854;2022-12-16T10:50:58;101230.53;;;0.00;97.89
75036;BME280;64247;51.540;5.854;2022-12-16T10:53:24;101238.56;;;0.05;98.33
75036;BME280;64247;51.540;5.854;2022-12-16T10:58:58;101240.16;;;0.06;97.71
75036;BME280;64247;51.540;5.854;2022-12-16T11:01:25;101244.44;;;0.07;97.54
75036;BME280;64247;51.540;5.854;2022-12-16T11:03:45;101233.75;;;0.07;96.93
75036;BME280;64247;51.540;5.854;2022-12-16T11:06:05;101242.78;;;0.01;97.41
75036;BME280;64247;51.540;5.854;2022-12-16T11:08:49;101226.53;;;0.08;97.76
75036;BME280;64247;51.540;5.854;2022-12-16T11:11:24;101237.56;;;0.22;97.17
75036;BME280;64247;51.540;5.854;2022-12-16T11:13:45;101236.56;;;0.38;96.93
75036;BME280;64247;51.540;5.854;2022-12-16T11:16:26;101228.56;;;0.49;96.45
75036;BME280;64247;51.540;5.854;2022-12-16T11:18:49;101227.53;;;0.65;94.88
75036;BME280;64247;51.540;5.854;2022-12-16T11:21:31;101229.41;;;0.70;95.01
75036;BME280;64247;51.540;5.854;2022-12-16T11:26:53;101233.38;;;0.52;94.16
75036;BME280;64247;51.540;5.854;2022-12-16T11:29:16;101244.56;;;0.43;95.17
75036;BME280;64247;51.540;5.854;2022-12-16T11:31:36;101238.41;;;0.33;95.12
75036;BME280;64247;51.540;5.854;2022-12-16T11:33:57;101245.59;;;0.27;95.54
75036;BME280;64247;51.540;5.854;2022-12-16T11:36:22;101246.63;;;0.26;96.20
75036;BME280;64247;51.540;5.854;2022-12-16T11:38:47;101243.13;;;0.20;96.50
75036;BME280;64247;51.540;5.854;2022-12-16T11:41:20;101236.25;;;0.35;96.10
75036;BME280;64247;51.540;5.854;2022-12-16T11:43:46;101246.47;;;0.53;96.24
75036;BME280;64247;51.540;5.854;2022-12-16T11:46:24;101252.41;;;0.71;94.92
75036;BME280;64247;51.540;5.854;2022-12-16T11:49:18;101250.56;;;0.82;93.64
75036;BME280;64247;51.540;5.854;2022-12-16T11:51:54;101242.25;;;0.88;93.88
75036;BME280;64247;51.540;5.854;2022-12-16T11:54:28;101243.34;;;0.92;93.66
75036;BME280;64247;51.540;5.854;2022-12-16T11:56:51;101243.31;;;0.82;93.19
75036;BME280;64247;51.540;5.854;2022-12-16T11:59:38;101251.63;;;0.81;92.79
75036;BME280;64247;51.540;5.854;2022-12-16T12:02:02;101247.88;;;0.82;93.63
75036;BME280;64247;51.540;5.854;2022-12-16T12:04:34;101244.38;;;0.81;93.78
75036;BME280;64247;51.540;5.854;2022-12-16T12:07:05;101247.34;;;0.74;93.54
75036;BME280;64247;51.540;5.854;2022-12-16T12:09:56;101243.84;;;0.63;94.03
75036;BME280;64247;51.540;5.854;2022-12-16T12:13:13;101240.56;;;0.41;94.03
75036;BME280;64247;51.540;5.854;2022-12-16T12:16:23;101247.25;;;0.43;94.55
75036;BME280;64247;51.540;5.854;2022-12-16T12:19:13;101256.13;;;0.65;95.15
75036;BME280;64247;51.540;5.854;2022-12-16T12:25:00;101240.97;;;1.27;91.90
75036;BME280;64247;51.540;5.854;2022-12-16T12:30:44;101255.38;;;1.16;91.96
75036;BME280;64247;51.540;5.854;2022-12-16T12:33:35;101258.34;;;1.14;91.93
75036;BME280;64247;51.540;5.854;2022-12-16T12:36:47;101258.06;;;1.52;92.40
75036;BME280;64247;51.540;5.854;2022-12-16T12:42:39;101263.69;;;2.47;88.97
75036;BME280;64247;51.540;5.854;2022-12-16T12:48:36;101285.97;;;3.32;86.44
75036;BME280;64247;51.540;5.854;2022-12-16T12:51:11;101293.84;;;2.78;86.30
75036;BME280;64247;51.540;5.854;2022-12-16T12:57:27;101283.97;;;1.93;87.73
75036;BME280;64247;51.540;5.854;2022-12-16T12:59:58;101280.25;;;1.73;88.57
75036;BME280;64247;51.540;5.854;2022-12-16T13:02:25;101290.97;;;1.57;88.32
75036;BME280;64247;51.540;5.854;2022-12-16T13:04:51;101290.97;;;1.37;89.65
75036;BME280;64247;51.540;5.854;2022-12-16T13:07:11;101297.09;;;1.12;89.56
75036;BME280;64247;51.540;5.854;2022-12-16T13:09:35;101293.59;;;0.90;90.78